sensor_id;sensor_type;location;lat;lon;timestamp;P1;durP1;ratioP1;P2;durP2;ratioP2
42104;SDS011;70664;51.472;5.712;2023-07-20T00:01:24;2.83;;;1.60;;
42104;SDS011;70664;51.472;5.712;2023-07-20T00:03:50;4.28;;;1.73;;
42104;SDS011;70664;51.472;5.712;2023-07-20T00:06:20;2.85;;;1.60;;
42104;SDS011;70664;51.472;5.712;2023-07-20T00:08:47;3.08;;;1.50;;
42104;SDS011;70664;51.472;5.712;2023-07-20T00:11:13;3.85;;;1.73;;
42104;SDS011;70664;51.472;5.712;2023-07-20T00:13:39;4.90;;;1.77;;
42104;SDS011;70664;51.472;5.712;2023-07-20T00:16:05;3.17;;;1.58;;
42104;SDS011;70664;51.472;5.712;2023-07-20T00:18:32;3.05;;;1.67;;
42104;SDS011;70664;51.472;5.712;2023-07-20T00:20:57;2.65;;;1.65;;
42104;SDS011;70664;51.472;5.712;2023-07-20T00:23:24;3.25;;;1.40;;
42104;SDS011;70664;51.472;5.712;2023-07-20T00:25:51;3.15;;;1.77;;
42104;SDS011;70664;51.472;5.712;2023-07-20T00:28:17;3.33;;;1.80;;
42104;SDS011;70664;51.472;5.712;2023-07-20T00:30:43;3.60;;;1.55;;
42104;SDS011;70664;51.472;5.712;2023-07-20T00:33:10;3.10;;;1.70;;
42104;SDS011;70664;51.472;5.712;2023-07-20T00:35:37;3.15;;;1.80;;
42104;SDS011;70664;51.472;5.712;2023-07-20T00:38:04;4.20;;;1.90;;
42104;SDS011;70664;51.472;5.712;2023-07-20T00:40:40;2.00;;;1.60;;
42104;SDS011;70664;51.472;5.712;2023-07-20T00:43:06;6.25;;;2.10;;
42104;SDS011;70664;51.472;5.712;2023-07-20T00:45:33;3.85;;;1.95;;
42104;SDS011;70664;51.472;5.712;2023-07-20T00:48:01;3.47;;;1.95;;
42104;SDS011;70664;51.472;5.712;2023-07-20T00:50:29;3.08;;;1.70;;
42104;SDS011;70664;51.472;5.712;2023-07-20T00:52:55;4.00;;;1.80;;
42104;SDS011;70664;51.472;5.712;2023-07-20T00:55:22;3.75;;;1.60;;
42104;SDS011;70664;51.472;5.712;2023-07-20T00:57:50;3.60;;;1.75;;
42104;SDS011;70664;51.472;5.712;2023-07-20T01:00:16;5.93;;;1.88;;
42104;SDS011;70664;51.472;5.712;2023-07-20T01:02:43;3.38;;;1.75;;
42104;SDS011;70664;51.472;5.712;2023-07-20T01:05:09;2.70;;;1.60;;
42104;SDS011;70664;51.472;5.712;2023-07-20T01:07:43;4.68;;;1.80;;
42104;SDS011;70664;51.472;5.712;2023-07-20T01:10:36;2.55;;;1.63;;
42104;SDS011;70664;51.472;5.712;2023-07-20T01:13:18;3.25;;;1.67;;
42104;SDS011;70664;51.472;5.712;2023-07-20T01:15:50;3.42;;;1.70;;
42104;SDS011;70664;51.472;5.712;2023-07-20T01:18:18;3.03;;;1.40;;
42104;SDS011;70664;51.472;5.712;2023-07-20T01:20:44;1.85;;;1.50;;
42104;SDS011;70664;51.472;5.712;2023-07-20T01:25:57;3.45;;;2.05;;
42104;SDS011;70664;51.472;5.712;2023-07-20T01:29:29;1.83;;;1.55;;
42104;SDS011;70664;51.472;5.712;2023-07-20T01:31:58;4.63;;;1.83;;
42104;SDS011;70664;51.472;5.712;2023-07-20T01:34:28;2.22;;;1.75;;
42104;SDS011;70664;51.472;5.712;2023-07-20T01:36:55;3.67;;;1.70;;
42104;SDS011;70664;51.472;5.712;2023-07-20T01:39:22;4.20;;;1.88;;
42104;SDS011;70664;51.472;5.712;2023-07-20T01:41:49;2.90;;;1.70;;
42104;SDS011;70664;51.472;5.712;2023-07-20T01:44:15;3.40;;;1.70;;
42104;SDS011;70664;51.472;5.712;2023-07-20T01:46:41;3.05;;;1.85;;
42104;SDS011;70664;51.472;5.712;2023-07-20T01:49:06;2.33;;;1.70;;
42104;SDS011;70664;51.472;5.712;2023-07-20T01:51:32;5.22;;;1.90;;
42104;SDS011;70664;51.472;5.712;2023-07-20T01:53:58;3.88;;;1.75;;
42104;SDS011;70664;51.472;5.712;2023-07-20T01:56:24;2.90;;;1.70;;
42104;SDS011;70664;51.472;5.712;2023-07-20T01:58:50;3.08;;;1.80;;
42104;SDS011;70664;51.472;5.712;2023-07-20T02:01:16;3.20;;;1.85;;
42104;SDS011;70664;51.472;5.712;2023-07-20T02:03:42;3.67;;;1.63;;
42104;SDS011;70664;51.472;5.712;2023-07-20T02:06:07;2.45;;;1.90;;
42104;SDS011;70664;51.472;5.712;2023-07-20T02:08:33;2.33;;;1.80;;
42104;SDS011;70664;51.472;5.712;2023-07-20T02:10:59;1.75;;;1.58;;
42104;SDS011;70664;51.472;5.712;2023-07-20T02:13:25;3.03;;;1.83;;
42104;SDS011;70664;51.472;5.712;2023-07-20T02:15:51;2.63;;;1.65;;
42104;SDS011;70664;51.472;5.712;2023-07-20T02:18:17;3.53;;;1.80;;
42104;SDS011;70664;51.472;5.712;2023-07-20T02:20:42;3.28;;;2.05;;
42104;SDS011;70664;51.472;5.712;2023-07-20T02:23:08;4.55;;;2.00;;
42104;SDS011;70664;51.472;5.712;2023-07-20T02:25:34;3.53;;;2.17;;
42104;SDS011;70664;51.472;5.712;2023-07-20T02:28:00;3.33;;;2.20;;
42104;SDS011;70664;51.472;5.712;2023-07-20T02:30:26;5.07;;;2.22;;
42104;SDS011;70664;51.472;5.712;2023-07-20T02:32:52;5.82;;;2.38;;
42104;SDS011;70664;51.472;5.712;2023-07-20T02:35:18;4.18;;;1.98;;
42104;SDS011;70664;51.472;5.712;2023-07-20T02:37:44;2.88;;;1.90;;
42104;SDS011;70664;51.472;5.712;2023-07-20T02:40:10;3.95;;;1.83;;
42104;SDS011;70664;51.472;5.712;2023-07-20T02:42:36;4.43;;;2.30;;
42104;SDS011;70664;51.472;5.712;2023-07-20T02:45:02;3.67;;;2.03;;
42104;SDS011;70664;51.472;5.712;2023-07-20T02:47:29;3.53;;;1.98;;
42104;SDS011;70664;51.472;5.712;2023-07-20T02:49:55;3.17;;;1.70;;
42104;SDS011;70664;51.472;5.712;2023-07-20T02:52:21;3.35;;;2.13;;
42104;SDS011;70664;51.472;5.712;2023-07-20T02:54:48;4.95;;;1.90;;
42104;SDS011;70664;51.472;5.712;2023-07-20T02:57:14;3.53;;;1.88;;
42104;SDS011;70664;51.472;5.712;2023-07-20T02:59:39;5.00;;;2.00;;
42104;SDS011;70664;51.472;5.712;2023-07-20T03:02:05;3.70;;;1.92;;
42104;SDS011;70664;51.472;5.712;2023-07-20T03:04:34;3.10;;;1.75;;
42104;SDS011;70664;51.472;5.712;2023-07-20T03:07:02;3.83;;;1.98;;
42104;SDS011;70664;51.472;5.712;2023-07-20T03:09:32;4.32;;;2.00;;
42104;SDS011;70664;51.472;5.712;2023-07-20T03:11:58;3.30;;;2.10;;
42104;SDS011;70664;51.472;5.712;2023-07-20T03:14:23;3.58;;;2.10;;
42104;SDS011;70664;51.472;5.712;2023-07-20T03:16:49;3.17;;;1.83;;
42104;SDS011;70664;51.472;5.712;2023-07-20T03:19:15;3.05;;;2.00;;
42104;SDS011;70664;51.472;5.712;2023-07-20T03:21:41;3.40;;;1.90;;
42104;SDS011;70664;51.472;5.712;2023-07-20T03:24:07;2.63;;;2.03;;
42104;SDS011;70664;51.472;5.712;2023-07-20T03:26:34;4.07;;;2.25;;
42104;SDS011;70664;51.472;5.712;2023-07-20T03:29:01;3.10;;;2.00;;
42104;SDS011;70664;51.472;5.712;2023-07-20T03:31:29;3.65;;;2.30;;
42104;SDS011;70664;51.472;5.712;2023-07-20T03:33:54;4.43;;;2.40;;
42104;SDS011;70664;51.472;5.712;2023-07-20T03:36:20;2.65;;;2.10;;
42104;SDS011;70664;51.472;5.712;2023-07-20T03:38:46;5.15;;;2.60;;
42104;SDS011;70664;51.472;5.712;2023-07-20T03:41:12;3.20;;;2.10;;
42104;SDS011;70664;51.472;5.712;2023-07-20T03:43:37;3.33;;;1.98;;
42104;SDS011;70664;51.472;5.712;2023-07-20T03:46:03;3.22;;;1.92;;
42104;SDS011;70664;51.472;5.712;2023-07-20T03:48:32;2.97;;;1.90;;
42104;SDS011;70664;51.472;5.712;2023-07-20T03:50:59;4.18;;;2.28;;
42104;SDS011;70664;51.472;5.712;2023-07-20T03:53:25;3.30;;;2.08;;
42104;SDS011;70664;51.472;5.712;2023-07-20T03:55:52;3.78;;;2.40;;
42104;SDS011;70664;51.472;5.712;2023-07-20T03:58:19;2.72;;;2.00;;
42104;SDS011;70664;51.472;5.712;2023-07-20T04:00:46;2.85;;;2.10;;
42104;SDS011;70664;51.472;5.712;2023-07-20T04:03:15;3.35;;;1.90;;
42104;SDS011;70664;51.472;5.712;2023-07-20T04:05:42;2.05;;;1.65;;
42104;SDS011;70664;51.472;5.712;2023-07-20T04:08:08;3.00;;;1.88;;
42104;SDS011;70664;51.472;5.712;2023-07-20T04:10:36;2.75;;;1.60;;
42104;SDS011;70664;51.472;5.712;2023-07-20T04:13:03;2.55;;;1.92;;
42104;SDS011;70664;51.472;5.712;2023-07-20T04:15:29;3.38;;;2.10;;
42104;SDS011;70664;51.472;5.712;2023-07-20T04:17:56;3.28;;;2.13;;
42104;SDS011;70664;51.472;5.712;2023-07-20T04:20:22;3.20;;;2.00;;
42104;SDS011;70664;51.472;5.712;2023-07-20T04:22:48;2.00;;;1.75;;
42104;SDS011;70664;51.472;5.712;2023-07-20T04:25:15;3.05;;;1.98;;
42104;SDS011;70664;51.472;5.712;2023-07-20T04:27:42;3.38;;;2.17;;
42104;SDS011;70664;51.472;5.712;2023-07-20T04:30:09;2.83;;;1.77;;
42104;SDS011;70664;51.472;5.712;2023-07-20T04:32:36;3.38;;;2.10;;
42104;SDS011;70664;51.472;5.712;2023-07-20T04:35:06;2.90;;;1.85;;
42104;SDS011;70664;51.472;5.712;2023-07-20T04:37:35;3.20;;;1.92;;
42104;SDS011;70664;51.472;5.712;2023-07-20T04:40:01;2.25;;;1.85;;
42104;SDS011;70664;51.472;5.712;2023-07-20T04:42:26;2.85;;;2.10;;
42104;SDS011;70664;51.472;5.712;2023-07-20T04:44:52;3.17;;;1.98;;
42104;SDS011;70664;51.472;5.712;2023-07-20T04:47:18;1.90;;;1.55;;
42104;SDS011;70664;51.472;5.712;2023-07-20T04:49:44;2.78;;;1.90;;
42104;SDS011;70664;51.472;5.712;2023-07-20T04:52:10;3.22;;;1.80;;
42104;SDS011;70664;51.472;5.712;2023-07-20T04:54:36;2.80;;;1.63;;
42104;SDS011;70664;51.472;5.712;2023-07-20T04:57:01;3.97;;;1.65;;
42104;SDS011;70664;51.472;5.712;2023-07-20T04:59:27;3.28;;;1.90;;
42104;SDS011;70664;51.472;5.712;2023-07-20T05:01:53;2.05;;;1.80;;
42104;SDS011;70664;51.472;5.712;2023-07-20T05:04:19;2.55;;;1.90;;
42104;SDS011;70664;51.472;5.712;2023-07-20T05:06:44;2.83;;;1.75;;
42104;SDS011;70664;51.472;5.712;2023-07-20T05:09:10;2.70;;;1.88;;
42104;SDS011;70664;51.472;5.712;2023-07-20T05:11:36;2.20;;;1.60;;
42104;SDS011;70664;51.472;5.712;2023-07-20T05:14:02;2.10;;;1.50;;
42104;SDS011;70664;51.472;5.712;2023-07-20T05:16:28;2.22;;;1.67;;
42104;SDS011;70664;51.472;5.712;2023-07-20T05:18:53;3.20;;;1.70;;
42104;SDS011;70664;51.472;5.712;2023-07-20T05:21:19;1.77;;;1.58;;
42104;SDS011;70664;51.472;5.712;2023-07-20T05:23:45;1.70;;;1.60;;
42104;SDS011;70664;51.472;5.712;2023-07-20T05:26:11;2.72;;;1.35;;
42104;SDS011;70664;51.472;5.712;2023-07-20T05:28:36;2.90;;;1.50;;
42104;SDS011;70664;51.472;5.712;2023-07-20T05:31:02;2.25;;;1.50;;
42104;SDS011;70664;51.472;5.712;2023-07-20T05:33:29;3.10;;;1.90;;
42104;SDS011;70664;51.472;5.712;2023-07-20T05:35:54;2.13;;;1.55;;
42104;SDS011;70664;51.472;5.712;2023-07-20T05:38:20;2.53;;;1.60;;
42104;SDS011;70664;51.472;5.712;2023-07-20T05:40:46;1.70;;;1.40;;
42104;SDS011;70664;51.472;5.712;2023-07-20T05:43:12;2.25;;;1.45;;
42104;SDS011;70664;51.472;5.712;2023-07-20T05:45:42;3.35;;;1.75;;
42104;SDS011;70664;51.472;5.712;2023-07-20T05:48:10;2.47;;;1.42;;
42104;SDS011;70664;51.472;5.712;2023-07-20T05:50:43;1.63;;;1.30;;
42104;SDS011;70664;51.472;5.712;2023-07-20T05:53:09;1.67;;;1.58;;
42104;SDS011;70664;51.472;5.712;2023-07-20T05:55:34;2.75;;;1.48;;
42104;SDS011;70664;51.472;5.712;2023-07-20T05:58:00;2.47;;;1.30;;
42104;SDS011;70664;51.472;5.712;2023-07-20T06:00:26;1.52;;;1.20;;
42104;SDS011;70664;51.472;5.712;2023-07-20T06:02:53;2.65;;;1.40;;
42104;SDS011;70664;51.472;5.712;2023-07-20T06:05:19;1.65;;;1.55;;
42104;SDS011;70664;51.472;5.712;2023-07-20T06:07:47;2.17;;;1.30;;
42104;SDS011;70664;51.472;5.712;2023-07-20T06:10:12;2.28;;;1.52;;
42104;SDS011;70664;51.472;5.712;2023-07-20T06:12:38;1.58;;;1.42;;
42104;SDS011;70664;51.472;5.712;2023-07-20T06:15:04;2.00;;;1.40;;
42104;SDS011;70664;51.472;5.712;2023-07-20T06:17:31;3.58;;;1.50;;
42104;SDS011;70664;51.472;5.712;2023-07-20T06:19:58;2.88;;;1.52;;
42104;SDS011;70664;51.472;5.712;2023-07-20T06:22:23;2.38;;;1.60;;
42104;SDS011;70664;51.472;5.712;2023-07-20T06:24:49;2.88;;;1.52;;
42104;SDS011;70664;51.472;5.712;2023-07-20T06:27:15;1.52;;;1.30;;
42104;SDS011;70664;51.472;5.712;2023-07-20T06:29:41;2.72;;;1.80;;
42104;SDS011;70664;51.472;5.712;2023-07-20T06:32:07;2.13;;;1.25;;
42104;SDS011;70664;51.472;5.712;2023-07-20T06:34:33;1.40;;;1.27;;
42104;SDS011;70664;51.472;5.712;2023-07-20T06:37:02;1.52;;;1.13;;
42104;SDS011;70664;51.472;5.712;2023-07-20T06:39:29;2.53;;;1.35;;
42104;SDS011;70664;51.472;5.712;2023-07-20T06:41:55;1.77;;;1.23;;
42104;SDS011;70664;51.472;5.712;2023-07-20T06:44:21;2.38;;;1.77;;
42104;SDS011;70664;51.472;5.712;2023-07-20T06:46:47;3.90;;;1.60;;
42104;SDS011;70664;51.472;5.712;2023-07-20T06:49:24;4.60;;;1.23;;
42104;SDS011;70664;51.472;5.712;2023-07-20T06:51:51;3.42;;;1.40;;
42104;SDS011;70664;51.472;5.712;2023-07-20T06:54:18;3.63;;;1.30;;
42104;SDS011;70664;51.472;5.712;2023-07-20T06:56:44;3.47;;;1.33;;
42104;SDS011;70664;51.472;5.712;2023-07-20T06:59:10;1.65;;;1.10;;
42104;SDS011;70664;51.472;5.712;2023-07-20T07:01:35;4.55;;;1.30;;
42104;SDS011;70664;51.472;5.712;2023-07-20T07:04:01;1.85;;;1.23;;
42104;SDS011;70664;51.472;5.712;2023-07-20T07:06:27;3.65;;;1.40;;
42104;SDS011;70664;51.472;5.712;2023-07-20T07:08:54;1.40;;;1.00;;
42104;SDS011;70664;51.472;5.712;2023-07-20T07:11:20;1.50;;;1.13;;
42104;SDS011;70664;51.472;5.712;2023-07-20T07:13:47;1.45;;;1.23;;
42104;SDS011;70664;51.472;5.712;2023-07-20T07:16:15;3.58;;;1.30;;
42104;SDS011;70664;51.472;5.712;2023-07-20T07:18:44;1.50;;;1.20;;
42104;SDS011;70664;51.472;5.712;2023-07-20T07:21:10;3.85;;;1.83;;
42104;SDS011;70664;51.472;5.712;2023-07-20T07:23:37;2.95;;;2.00;;
42104;SDS011;70664;51.472;5.712;2023-07-20T07:26:04;2.13;;;1.42;;
42104;SDS011;70664;51.472;5.712;2023-07-20T07:28:30;2.75;;;1.27;;
42104;SDS011;70664;51.472;5.712;2023-07-20T07:30:57;2.47;;;1.40;;
42104;SDS011;70664;51.472;5.712;2023-07-20T07:33:22;2.35;;;1.00;;
42104;SDS011;70664;51.472;5.712;2023-07-20T07:35:49;4.95;;;1.20;;
42104;SDS011;70664;51.472;5.712;2023-07-20T07:38:17;1.55;;;1.10;;
42104;SDS011;70664;51.472;5.712;2023-07-20T07:40:44;1.45;;;1.10;;
42104;SDS011;70664;51.472;5.712;2023-07-20T07:43:10;1.23;;;1.10;;
42104;SDS011;70664;51.472;5.712;2023-07-20T07:45:36;1.80;;;1.00;;
42104;SDS011;70664;51.472;5.712;2023-07-20T07:48:03;2.60;;;1.20;;
42104;SDS011;70664;51.472;5.712;2023-07-20T07:50:30;3.28;;;1.15;;
42104;SDS011;70664;51.472;5.712;2023-07-20T07:52:56;1.80;;;1.33;;
42104;SDS011;70664;51.472;5.712;2023-07-20T07:55:22;2.13;;;1.10;;
42104;SDS011;70664;51.472;5.712;2023-07-20T07:57:51;1.58;;;1.10;;
42104;SDS011;70664;51.472;5.712;2023-07-20T08:00:17;3.13;;;1.30;;
42104;SDS011;70664;51.472;5.712;2023-07-20T08:02:44;1.58;;;1.30;;
42104;SDS011;70664;51.472;5.712;2023-07-20T08:05:13;1.80;;;1.48;;
42104;SDS011;70664;51.472;5.712;2023-07-20T08:07:39;2.13;;;1.38;;
42104;SDS011;70664;51.472;5.712;2023-07-20T08:10:05;2.05;;;1.27;;
42104;SDS011;70664;51.472;5.712;2023-07-20T08:12:32;3.20;;;1.20;;
42104;SDS011;70664;51.472;5.712;2023-07-20T08:14:58;1.67;;;1.23;;
42104;SDS011;70664;51.472;5.712;2023-07-20T08:17:24;1.48;;;1.30;;
42104;SDS011;70664;51.472;5.712;2023-07-20T08:19:50;1.83;;;1.40;;
42104;SDS011;70664;51.472;5.712;2023-07-20T08:22:15;3.58;;;1.60;;
42104;SDS011;70664;51.472;5.712;2023-07-20T08:24:41;1.67;;;1.20;;
42104;SDS011;70664;51.472;5.712;2023-07-20T08:27:08;1.80;;;1.20;;
42104;SDS011;70664;51.472;5.712;2023-07-20T08:29:35;2.10;;;1.23;;
42104;SDS011;70664;51.472;5.712;2023-07-20T08:32:01;1.40;;;1.30;;
42104;SDS011;70664;51.472;5.712;2023-07-20T08:34:29;2.95;;;1.42;;
42104;SDS011;70664;51.472;5.712;2023-07-20T08:36:55;1.50;;;1.10;;
42104;SDS011;70664;51.472;5.712;2023-07-20T08:39:22;2.08;;;1.15;;
42104;SDS011;70664;51.472;5.712;2023-07-20T08:41:49;3.25;;;1.20;;
42104;SDS011;70664;51.472;5.712;2023-07-20T08:44:16;1.75;;;1.15;;
42104;SDS011;70664;51.472;5.712;2023-07-20T08:46:42;1.75;;;1.25;;
42104;SDS011;70664;51.472;5.712;2023-07-20T08:49:09;2.05;;;1.10;;
42104;SDS011;70664;51.472;5.712;2023-07-20T08:51:36;2.80;;;1.40;;
42104;SDS011;70664;51.472;5.712;2023-07-20T08:54:04;1.60;;;1.08;;
42104;SDS011;70664;51.472;5.712;2023-07-20T08:56:31;2.35;;;1.27;;
42104;SDS011;70664;51.472;5.712;2023-07-20T08:58:58;2.25;;;1.30;;
42104;SDS011;70664;51.472;5.712;2023-07-20T09:01:28;2.83;;;1.15;;
42104;SDS011;70664;51.472;5.712;2023-07-20T09:03:54;2.53;;;1.50;;
42104;SDS011;70664;51.472;5.712;2023-07-20T09:06:21;3.05;;;1.40;;
42104;SDS011;70664;51.472;5.712;2023-07-20T09:08:47;3.17;;;1.10;;
42104;SDS011;70664;51.472;5.712;2023-07-20T09:11:13;4.63;;;1.23;;
42104;SDS011;70664;51.472;5.712;2023-07-20T09:13:40;9.95;;;1.08;;
42104;SDS011;70664;51.472;5.712;2023-07-20T09:16:06;1.75;;;0.90;;
42104;SDS011;70664;51.472;5.712;2023-07-20T09:18:32;3.80;;;1.20;;
42104;SDS011;70664;51.472;5.712;2023-07-20T09:21:02;3.80;;;0.98;;
42104;SDS011;70664;51.472;5.712;2023-07-20T09:23:31;1.65;;;0.90;;
42104;SDS011;70664;51.472;5.712;2023-07-20T09:25:58;1.92;;;0.90;;
42104;SDS011;70664;51.472;5.712;2023-07-20T09:28:24;2.63;;;0.80;;
42104;SDS011;70664;51.472;5.712;2023-07-20T09:30:50;1.38;;;1.00;;
42104;SDS011;70664;51.472;5.712;2023-07-20T09:33:21;2.20;;;0.93;;
42104;SDS011;70664;51.472;5.712;2023-07-20T09:35:48;2.90;;;0.90;;
42104;SDS011;70664;51.472;5.712;2023-07-20T09:38:14;2.33;;;1.02;;
42104;SDS011;70664;51.472;5.712;2023-07-20T09:40:40;5.82;;;1.48;;
42104;SDS011;70664;51.472;5.712;2023-07-20T09:43:07;1.88;;;0.80;;
42104;SDS011;70664;51.472;5.712;2023-07-20T09:45:35;1.45;;;1.00;;
42104;SDS011;70664;51.472;5.712;2023-07-20T09:48:08;1.75;;;0.85;;
42104;SDS011;70664;51.472;5.712;2023-07-20T09:50:39;3.70;;;1.05;;
42104;SDS011;70664;51.472;5.712;2023-07-20T09:53:07;2.20;;;1.10;;
42104;SDS011;70664;51.472;5.712;2023-07-20T09:55:39;2.72;;;0.90;;
42104;SDS011;70664;51.472;5.712;2023-07-20T09:58:08;10.23;;;1.10;;
42104;SDS011;70664;51.472;5.712;2023-07-20T10:00:35;2.15;;;0.80;;
42104;SDS011;70664;51.472;5.712;2023-07-20T10:03:03;2.45;;;1.08;;
42104;SDS011;70664;51.472;5.712;2023-07-20T10:05:34;1.70;;;0.90;;
42104;SDS011;70664;51.472;5.712;2023-07-20T10:08:04;11.40;;;1.13;;
42104;SDS011;70664;51.472;5.712;2023-07-20T10:10:36;1.73;;;1.20;;
42104;SDS011;70664;51.472;5.712;2023-07-20T10:13:06;1.10;;;0.90;;
42104;SDS011;70664;51.472;5.712;2023-07-20T10:16:21;2.58;;;0.98;;
42104;SDS011;70664;51.472;5.712;2023-07-20T10:18:46;1.58;;;0.77;;
42104;SDS011;70664;51.472;5.712;2023-07-20T10:21:26;1.35;;;0.90;;
42104;SDS011;70664;51.472;5.712;2023-07-20T10:23:55;1.92;;;0.80;;
42104;SDS011;70664;51.472;5.712;2023-07-20T10:26:22;1.83;;;0.70;;
42104;SDS011;70664;51.472;5.712;2023-07-20T10:28:48;1.83;;;0.70;;
42104;SDS011;70664;51.472;5.712;2023-07-20T10:31:14;1.73;;;0.70;;
42104;SDS011;70664;51.472;5.712;2023-07-20T10:33:42;2.72;;;1.00;;
42104;SDS011;70664;51.472;5.712;2023-07-20T10:36:09;1.10;;;0.88;;
42104;SDS011;70664;51.472;5.712;2023-07-20T10:41:57;2.15;;;1.00;;
42104;SDS011;70664;51.472;5.712;2023-07-20T10:44:08;1.15;;;0.70;;
42104;SDS011;70664;51.472;5.712;2023-07-20T10:49:04;1.27;;;0.80;;
42104;SDS011;70664;51.472;5.712;2023-07-20T10:51:42;2.05;;;1.00;;
42104;SDS011;70664;51.472;5.712;2023-07-20T10:56:41;1.02;;;0.70;;
42104;SDS011;70664;51.472;5.712;2023-07-20T10:59:19;1.15;;;0.70;;
42104;SDS011;70664;51.472;5.712;2023-07-20T11:01:48;6.30;;;0.98;;
42104;SDS011;70664;51.472;5.712;2023-07-20T11:04:15;2.85;;;0.70;;
42104;SDS011;70664;51.472;5.712;2023-07-20T11:06:44;2.33;;;0.75;;
42104;SDS011;70664;51.472;5.712;2023-07-20T11:09:12;1.70;;;0.75;;
42104;SDS011;70664;51.472;5.712;2023-07-20T11:11:40;4.63;;;1.00;;
42104;SDS011;70664;51.472;5.712;2023-07-20T11:14:24;3.17;;;0.65;;
42104;SDS011;70664;51.472;5.712;2023-07-20T11:16:51;1.08;;;0.60;;
42104;SDS011;70664;51.472;5.712;2023-07-20T11:19:19;4.65;;;0.80;;
42104;SDS011;70664;51.472;5.712;2023-07-20T11:24:20;1.83;;;0.90;;
42104;SDS011;70664;51.472;5.712;2023-07-20T11:26:47;1.50;;;0.75;;
42104;SDS011;70664;51.472;5.712;2023-07-20T11:29:19;0.93;;;0.60;;
42104;SDS011;70664;51.472;5.712;2023-07-20T11:31:47;1.38;;;0.90;;
42104;SDS011;70664;51.472;5.712;2023-07-20T11:34:15;2.28;;;0.80;;
42104;SDS011;70664;51.472;5.712;2023-07-20T11:36:47;1.92;;;0.80;;
42104;SDS011;70664;51.472;5.712;2023-07-20T11:39:18;1.77;;;0.80;;
42104;SDS011;70664;51.472;5.712;2023-07-20T11:41:50;2.45;;;0.90;;
42104;SDS011;70664;51.472;5.712;2023-07-20T11:44:22;2.20;;;0.80;;
42104;SDS011;70664;51.472;5.712;2023-07-20T11:47:02;3.03;;;0.88;;
42104;SDS011;70664;51.472;5.712;2023-07-20T11:49:39;2.22;;;0.60;;
42104;SDS011;70664;51.472;5.712;2023-07-20T11:52:15;1.58;;;0.73;;
42104;SDS011;70664;51.472;5.712;2023-07-20T11:54:42;1.63;;;0.77;;
42104;SDS011;70664;51.472;5.712;2023-07-20T11:57:18;1.88;;;0.77;;
42104;SDS011;70664;51.472;5.712;2023-07-20T11:59:54;0.85;;;0.70;;
42104;SDS011;70664;51.472;5.712;2023-07-20T12:02:22;0.80;;;0.60;;
42104;SDS011;70664;51.472;5.712;2023-07-20T12:04:51;1.67;;;0.85;;
42104;SDS011;70664;51.472;5.712;2023-07-20T12:07:19;3.08;;;0.70;;
42104;SDS011;70664;51.472;5.712;2023-07-20T12:09:45;1.67;;;0.70;;
42104;SDS011;70664;51.472;5.712;2023-07-20T12:12:32;3.20;;;0.77;;
42104;SDS011;70664;51.472;5.712;2023-07-20T12:15:12;2.22;;;0.68;;
42104;SDS011;70664;51.472;5.712;2023-07-20T12:18:00;2.00;;;0.80;;
42104;SDS011;70664;51.472;5.712;2023-07-20T12:20:28;1.38;;;0.70;;
42104;SDS011;70664;51.472;5.712;2023-07-20T12:23:06;1.60;;;0.70;;
42104;SDS011;70664;51.472;5.712;2023-07-20T12:25:44;2.20;;;0.80;;
42104;SDS011;70664;51.472;5.712;2023-07-20T12:28:12;2.63;;;1.10;;
42104;SDS011;70664;51.472;5.712;2023-07-20T12:30:40;1.45;;;0.70;;
42104;SDS011;70664;51.472;5.712;2023-07-20T12:33:08;1.40;;;0.60;;
42104;SDS011;70664;51.472;5.712;2023-07-20T12:35:34;6.70;;;0.90;;
42104;SDS011;70664;51.472;5.712;2023-07-20T12:38:00;1.05;;;0.63;;
42104;SDS011;70664;51.472;5.712;2023-07-20T12:40:26;2.17;;;0.75;;
42104;SDS011;70664;51.472;5.712;2023-07-20T12:42:52;1.08;;;0.70;;
42104;SDS011;70664;51.472;5.712;2023-07-20T12:45:18;2.35;;;0.80;;
42104;SDS011;70664;51.472;5.712;2023-07-20T12:47:43;2.45;;;0.85;;
42104;SDS011;70664;51.472;5.712;2023-07-20T12:50:09;3.47;;;0.80;;
42104;SDS011;70664;51.472;5.712;2023-07-20T12:52:36;4.55;;;1.48;;
42104;SDS011;70664;51.472;5.712;2023-07-20T12:55:04;18.92;;;2.50;;
42104;SDS011;70664;51.472;5.712;2023-07-20T12:57:33;14.30;;;2.10;;
42104;SDS011;70664;51.472;5.712;2023-07-20T13:00:00;8.20;;;2.30;;
42104;SDS011;70664;51.472;5.712;2023-07-20T13:02:31;10.15;;;2.30;;
42104;SDS011;70664;51.472;5.712;2023-07-20T13:04:58;9.57;;;2.58;;
42104;SDS011;70664;51.472;5.712;2023-07-20T13:07:30;8.20;;;2.35;;
42104;SDS011;70664;51.472;5.712;2023-07-20T13:09:59;8.20;;;2.70;;
42104;SDS011;70664;51.472;5.712;2023-07-20T13:12:26;6.65;;;2.20;;
42104;SDS011;70664;51.472;5.712;2023-07-20T13:18:31;6.38;;;2.20;;
42104;SDS011;70664;51.472;5.712;2023-07-20T13:21:05;7.82;;;1.88;;
42104;SDS011;70664;51.472;5.712;2023-07-20T13:23:35;5.03;;;1.70;;
42104;SDS011;70664;51.472;5.712;2023-07-20T13:26:02;4.72;;;1.67;;
42104;SDS011;70664;51.472;5.712;2023-07-20T13:28:30;5.53;;;2.00;;
42104;SDS011;70664;51.472;5.712;2023-07-20T13:30:56;3.47;;;1.45;;
42104;SDS011;70664;51.472;5.712;2023-07-20T13:33:21;4.97;;;1.40;;
42104;SDS011;70664;51.472;5.712;2023-07-20T13:35:50;6.43;;;1.50;;
42104;SDS011;70664;51.472;5.712;2023-07-20T13:38:16;3.20;;;1.30;;
42104;SDS011;70664;51.472;5.712;2023-07-20T13:40:41;4.00;;;1.30;;
42104;SDS011;70664;51.472;5.712;2023-07-20T13:43:08;5.50;;;1.50;;
42104;SDS011;70664;51.472;5.712;2023-07-20T13:45:34;4.85;;;1.50;;
42104;SDS011;70664;51.472;5.712;2023-07-20T13:48:00;6.25;;;1.70;;
42104;SDS011;70664;51.472;5.712;2023-07-20T13:50:26;6.22;;;1.48;;
42104;SDS011;70664;51.472;5.712;2023-07-20T13:52:53;3.85;;;1.73;;
42104;SDS011;70664;51.472;5.712;2023-07-20T13:55:19;4.45;;;1.58;;
42104;SDS011;70664;51.472;5.712;2023-07-20T13:57:45;5.65;;;1.70;;
42104;SDS011;70664;51.472;5.712;2023-07-20T14:00:10;8.15;;;1.70;;
42104;SDS011;70664;51.472;5.712;2023-07-20T14:02:38;7.40;;;2.10;;
42104;SDS011;70664;51.472;5.712;2023-07-20T14:05:04;7.90;;;2.53;;
42104;SDS011;70664;51.472;5.712;2023-07-20T14:07:30;5.03;;;2.17;;
42104;SDS011;70664;51.472;5.712;2023-07-20T14:09:56;8.70;;;1.90;;
42104;SDS011;70664;51.472;5.712;2023-07-20T14:12:22;6.30;;;1.90;;
42104;SDS011;70664;51.472;5.712;2023-07-20T14:14:48;5.10;;;1.60;;
42104;SDS011;70664;51.472;5.712;2023-07-20T14:17:14;5.68;;;1.63;;
42104;SDS011;70664;51.472;5.712;2023-07-20T14:19:39;5.65;;;1.60;;
42104;SDS011;70664;51.472;5.712;2023-07-20T14:22:05;2.65;;;1.55;;
42104;SDS011;70664;51.472;5.712;2023-07-20T14:24:31;2.55;;;1.38;;
42104;SDS011;70664;51.472;5.712;2023-07-20T14:26:57;5.47;;;1.70;;
42104;SDS011;70664;51.472;5.712;2023-07-20T14:29:25;6.47;;;1.42;;
42104;SDS011;70664;51.472;5.712;2023-07-20T14:31:51;2.17;;;1.30;;
42104;SDS011;70664;51.472;5.712;2023-07-20T14:34:18;2.70;;;1.20;;
42104;SDS011;70664;51.472;5.712;2023-07-20T14:36:44;3.25;;;1.13;;
42104;SDS011;70664;51.472;5.712;2023-07-20T14:39:10;4.85;;;1.60;;
42104;SDS011;70664;51.472;5.712;2023-07-20T14:41:36;11.60;;;2.00;;
42104;SDS011;70664;51.472;5.712;2023-07-20T14:44:02;4.57;;;1.40;;
42104;SDS011;70664;51.472;5.712;2023-07-20T14:46:28;5.15;;;1.40;;
42104;SDS011;70664;51.472;5.712;2023-07-20T14:48:54;7.53;;;1.25;;
42104;SDS011;70664;51.472;5.712;2023-07-20T14:51:20;2.03;;;1.30;;
42104;SDS011;70664;51.472;5.712;2023-07-20T14:53:46;4.47;;;1.40;;
42104;SDS011;70664;51.472;5.712;2023-07-20T14:56:12;3.47;;;1.10;;
42104;SDS011;70664;51.472;5.712;2023-07-20T14:58:37;3.63;;;1.50;;
42104;SDS011;70664;51.472;5.712;2023-07-20T15:01:03;5.05;;;1.23;;
42104;SDS011;70664;51.472;5.712;2023-07-20T15:03:29;1.55;;;1.15;;
42104;SDS011;70664;51.472;5.712;2023-07-20T15:05:58;3.83;;;2.22;;
42104;SDS011;70664;51.472;5.712;2023-07-20T15:08:24;5.65;;;3.85;;